sensor_id;sensor_type;location;lat;lon;timestamp;temperature;humidity
20035;DHT22;10178;48.034;9.800;2024-03-02T00:00:10;7.50;99.90
20035;DHT22;10178;48.034;9.800;2024-03-02T00:02:43;7.50;99.90
20035;DHT22;10178;48.034;9.800;2024-03-02T00:05:20;7.40;99.90
20035;DHT22;10178;48.034;9.800;2024-03-02T00:07:52;7.40;99.90
20035;DHT22;10178;48.034;9.800;2024-03-02T00:10:20;7.30;99.90
20035;DHT22;10178;48.034;9.800;2024-03-02T00:12:49;7.40;99.90
20035;DHT22;10178;48.034;9.800;2024-03-02T00:17:43;7.40;99.90
20035;DHT22;10178;48.034;9.800;2024-03-02T00:20:09;7.50;99.90
20035;DHT22;10178;48.034;9.800;2024-03-02T00:22:36;7.50;99.90
20035;DHT22;10178;48.034;9.800;2024-03-02T00:25:03;7.40;99.90
20035;DHT22;10178;48.034;9.800;2024-03-02T00:27:29;7.50;99.90
20035;DHT22;10178;48.034;9.800;2024-03-02T00:29:55;7.50;99.90
20035;DHT22;10178;48.034;9.800;2024-03-02T00:32:21;7.50;99.90
20035;DHT22;10178;48.034;9.800;2024-03-02T00:34:46;7.50;99.90
20035;DHT22;10178;48.034;9.800;2024-03-02T00:37:12;7.40;99.90
20035;DHT22;10178;48.034;9.800;2024-03-02T00:39:39;7.40;99.90
20035;DHT22;10178;48.034;9.800;2024-03-02T00:42:05;7.30;99.90
20035;DHT22;10178;48.034;9.800;2024-03-02T00:44:33;7.00;99.90
20035;DHT22;10178;48.034;9.800;2024-03-02T00:47:01;6.20;99.90
20035;DHT22;10178;48.034;9.800;2024-03-02T00:49:27;6.40;99.90
20035;DHT22;10178;48.034;9.800;2024-03-02T00:51:54;6.70;99.90
20035;DHT22;10178;48.034;9.800;2024-03-02T00:54:21;7.00;99.90
20035;DHT22;10178;48.034;9.800;2024-03-02T00:56:49;7.10;99.90
20035;DHT22;10178;48.034;9.800;2024-03-02T00:59:15;7.10;99.90
20035;DHT22;10178;48.034;9.800;2024-03-02T01:01:40;7.20;99.90
20035;DHT22;10178;48.034;9.800;2024-03-02T01:04:07;7.20;99.90
20035;DHT22;10178;48.034;9.800;2024-03-02T01:06:33;7.20;99.90
20035;DHT22;10178;48.034;9.800;2024-03-02T01:08:59;7.20;99.90
20035;DHT22;10178;48.034;9.800;2024-03-02T01:11:25;7.20;99.90
20035;DHT22;10178;48.034;9.800;2024-03-02T01:13:51;7.20;99.90
20035;DHT22;10178;48.034;9.800;2024-03-02T01:16:17;7.20;99.90
20035;DHT22;10178;48.034;9.800;2024-03-02T01:18:43;7.20;99.90
20035;DHT22;10178;48.034;9.800;2024-03-02T01:21:09;7.20;99.90
20035;DHT22;10178;48.034;9.800;2024-03-02T01:23:34;7.20;99.90
20035;DHT22;10178;48.034;9.800;2024-03-02T01:26:00;7.20;99.90
20035;DHT22;10178;48.034;9.800;2024-03-02T01:28:26;7.20;99.90
20035;DHT22;10178;48.034;9.800;2024-03-02T01:30:51;7.20;99.90
20035;DHT22;10178;48.034;9.800;2024-03-02T01:33:18;7.10;99.90
20035;DHT22;10178;48.034;9.800;2024-03-02T01:35:44;6.90;99.90
20035;DHT22;10178;48.034;9.800;2024-03-02T01:38:10;6.90;99.90
20035;DHT22;10178;48.034;9.800;2024-03-02T01:40:37;6.80;99.90
20035;DHT22;10178;48.034;9.800;2024-03-02T01:43:04;6.70;99.90
20035;DHT22;10178;48.034;9.800;2024-03-02T01:45:29;6.70;99.90
20035;DHT22;10178;48.034;9.800;2024-03-02T01:47:55;6.90;99.90
20035;DHT22;10178;48.034;9.800;2024-03-02T01:50:28;7.00;99.90
20035;DHT22;10178;48.034;9.800;2024-03-02T01:52:55;7.00;99.90
20035;DHT22;10178;48.034;9.800;2024-03-02T01:55:21;6.90;99.90
20035;DHT22;10178;48.034;9.800;2024-03-02T01:57:47;6.70;99.90
20035;DHT22;10178;48.034;9.800;2024-03-02T02:00:14;6.60;99.90
20035;DHT22;10178;48.034;9.800;2024-03-02T02:02:39;6.70;99.90
20035;DHT22;10178;48.034;9.800;2024-03-02T02:05:05;6.50;99.90
20035;DHT22;10178;48.034;9.800;2024-03-02T02:07:31;6.40;99.90
20035;DHT22;10178;48.034;9.800;2024-03-02T02:09:57;6.60;99.90
20035;DHT22;10178;48.034;9.800;2024-03-02T02:12:23;6.80;99.90
20035;DHT22;10178;48.034;9.800;2024-03-02T02:14:49;6.90;99.90
20035;DHT22;10178;48.034;9.800;2024-03-02T02:17:16;7.00;99.90
20035;DHT22;10178;48.034;9.800;2024-03-02T02:19:42;7.00;99.90
20035;DHT22;10178;48.034;9.800;2024-03-02T02:22:09;7.00;99.90
20035;DHT22;10178;48.034;9.800;2024-03-02T02:24:34;7.00;99.90
20035;DHT22;10178;48.034;9.800;2024-03-02T02:27:00;7.00;99.90
20035;DHT22;10178;48.034;9.800;2024-03-02T02:29:26;7.00;99.90
20035;DHT22;10178;48.034;9.800;2024-03-02T02:31:51;7.00;99.90
20035;DHT22;10178;48.034;9.800;2024-03-02T02:34:17;7.00;99.90
20035;DHT22;10178;48.034;9.800;2024-03-02T02:36:42;7.00;99.90
20035;DHT22;10178;48.034;9.800;2024-03-02T02:39:11;7.00;99.90
20035;DHT22;10178;48.034;9.800;2024-03-02T02:41:38;7.00;99.90
20035;DHT22;10178;48.034;9.800;2024-03-02T02:44:04;7.00;99.90
20035;DHT22;10178;48.034;9.800;2024-03-02T02:46:30;6.90;99.90
20035;DHT22;10178;48.034;9.800;2024-03-02T02:48:56;6.80;99.90
20035;DHT22;10178;48.034;9.800;2024-03-02T02:51:21;6.80;99.90
20035;DHT22;10178;48.034;9.800;2024-03-02T02:53:47;6.90;99.90
20035;DHT22;10178;48.034;9.800;2024-03-02T02:56:12;6.90;99.90
20035;DHT22;10178;48.034;9.800;2024-03-02T02:58:40;6.90;99.90
20035;DHT22;10178;48.034;9.800;2024-03-02T03:01:07;6.50;99.90
20035;DHT22;10178;48.034;9.800;2024-03-02T03:03:33;6.20;99.90
20035;DHT22;10178;48.034;9.800;2024-03-02T03:05:58;6.40;99.90
20035;DHT22;10178;48.034;9.800;2024-03-02T03:08:24;6.60;99.90
20035;DHT22;10178;48.034;9.800;2024-03-02T03:10:50;6.70;99.90
20035;DHT22;10178;48.034;9.800;2024-03-02T03:13:15;6.80;99.90
20035;DHT22;10178;48.034;9.800;2024-03-02T03:15:41;6.90;99.90
20035;DHT22;10178;48.034;9.800;2024-03-02T03:18:07;6.80;99.90
20035;DHT22;10178;48.034;9.800;2024-03-02T03:20:33;6.90;99.90
20035;DHT22;10178;48.034;9.800;2024-03-02T03:22:59;6.80;99.90
20035;DHT22;10178;48.034;9.800;2024-03-02T03:25:25;6.80;99.90
20035;DHT22;10178;48.034;9.800;2024-03-02T03:27:50;6.90;99.90
20035;DHT22;10178;48.034;9.800;2024-03-02T03:30:19;6.90;99.90
20035;DHT22;10178;48.034;9.800;2024-03-02T03:32:44;6.90;99.90
20035;DHT22;10178;48.034;9.800;2024-03-02T03:35:10;6.90;99.90
20035;DHT22;10178;48.034;9.800;2024-03-02T03:37:37;6.80;99.90
20035;DHT22;10178;48.034;9.800;2024-03-02T03:40:04;6.80;99.90
20035;DHT22;10178;48.034;9.800;2024-03-02T03:42:35;6.80;99.90
20035;DHT22;10178;48.034;9.800;2024-03-02T03:45:01;6.80;99.90
20035;DHT22;10178;48.034;9.800;2024-03-02T03:47:26;6.30;99.90
20035;DHT22;10178;48.034;9.800;2024-03-02T03:49:52;6.50;99.90
20035;DHT22;10178;48.034;9.800;2024-03-02T03:52:18;6.60;99.90
20035;DHT22;10178;48.034;9.800;2024-03-02T03:54:43;6.70;99.90
20035;DHT22;10178;48.034;9.800;2024-03-02T03:57:10;6.40;99.90
20035;DHT22;10178;48.034;9.800;2024-03-02T03:59:35;5.90;99.90
20035;DHT22;10178;48.034;9.800;2024-03-02T04:02:03;5.50;99.90
20035;DHT22;10178;48.034;9.800;2024-03-02T04:04:28;5.80;99.90
20035;DHT22;10178;48.034;9.800;2024-03-02T04:06:54;6.10;99.90
20035;DHT22;10178;48.034;9.800;2024-03-02T04:09:20;6.30;99.90
20035;DHT22;10178;48.034;9.800;2024-03-02T04:11:45;6.40;99.90
20035;DHT22;10178;48.034;9.800;2024-03-02T04:14:11;6.40;99.90
20035;DHT22;10178;48.034;9.800;2024-03-02T04:16:38;6.40;99.90
20035;DHT22;10178;48.034;9.800;2024-03-02T04:19:04;5.50;99.90
20035;DHT22;10178;48.034;9.800;2024-03-02T04:21:30;4.90;99.90
20035;DHT22;10178;48.034;9.800;2024-03-02T04:23:56;4.10;99.90
20035;DHT22;10178;48.034;9.800;2024-03-02T04:26:24;3.70;99.90
20035;DHT22;10178;48.034;9.800;2024-03-02T04:28:55;3.50;99.90
20035;DHT22;10178;48.034;9.800;2024-03-02T04:31:20;3.40;99.90
20035;DHT22;10178;48.034;9.800;2024-03-02T04:33:46;3.50;99.90
20035;DHT22;10178;48.034;9.800;2024-03-02T04:36:12;3.40;99.90
20035;DHT22;10178;48.034;9.800;2024-03-02T04:38:38;3.50;99.90
20035;DHT22;10178;48.034;9.800;2024-03-02T04:41:04;4.00;99.90
20035;DHT22;10178;48.034;9.800;2024-03-02T04:43:32;4.50;99.90
20035;DHT22;10178;48.034;9.800;2024-03-02T04:45:58;4.90;99.90
20035;DHT22;10178;48.034;9.800;2024-03-02T04:48:24;5.30;99.90
20035;DHT22;10178;48.034;9.800;2024-03-02T04:50:50;5.50;99.90
20035;DHT22;10178;48.034;9.800;2024-03-02T04:53:15;5.50;99.90
20035;DHT22;10178;48.034;9.800;2024-03-02T04:55:41;5.60;99.90
20035;DHT22;10178;48.034;9.800;2024-03-02T04:58:06;5.90;99.90
20035;DHT22;10178;48.034;9.800;2024-03-02T05:00:33;5.90;99.90
20035;DHT22;10178;48.034;9.800;2024-03-02T05:02:58;6.00;99.90
20035;DHT22;10178;48.034;9.800;2024-03-02T05:05:24;6.20;99.90
20035;DHT22;10178;48.034;9.800;2024-03-02T05:07:49;6.30;99.90
20035;DHT22;10178;48.034;9.800;2024-03-02T05:10:15;6.30;99.90
20035;DHT22;10178;48.034;9.800;2024-03-02T05:12:41;6.20;99.90
20035;DHT22;10178;48.034;9.800;2024-03-02T05:15:13;5.10;99.90
20035;DHT22;10178;48.034;9.800;2024-03-02T05:17:40;4.60;99.90
20035;DHT22;10178;48.034;9.800;2024-03-02T05:20:08;4.10;99.90
20035;DHT22;10178;48.034;9.800;2024-03-02T05:22:35;4.70;99.90
20035;DHT22;10178;48.034;9.800;2024-03-02T05:25:04;5.20;99.90
20035;DHT22;10178;48.034;9.800;2024-03-02T05:27:30;4.90;99.90
20035;DHT22;10178;48.034;9.800;2024-03-02T05:29:56;4.70;99.90
20035;DHT22;10178;48.034;9.800;2024-03-02T05:32:23;5.20;99.90
20035;DHT22;10178;48.034;9.800;2024-03-02T05:34:48;5.50;99.90
20035;DHT22;10178;48.034;9.800;2024-03-02T05:37:16;5.80;99.90
20035;DHT22;10178;48.034;9.800;2024-03-02T05:39:42;6.00;99.90
20035;DHT22;10178;48.034;9.800;2024-03-02T05:42:08;6.10;99.90
20035;DHT22;10178;48.034;9.800;2024-03-02T05:44:35;6.20;99.90
20035;DHT22;10178;48.034;9.800;2024-03-02T05:47:01;5.90;99.90
20035;DHT22;10178;48.034;9.800;2024-03-02T05:49:26;5.20;99.90
20035;DHT22;10178;48.034;9.800;2024-03-02T05:51:52;4.50;99.90
20035;DHT22;10178;48.034;9.800;2024-03-02T05:54:17;4.60;99.90
20035;DHT22;10178;48.034;9.800;2024-03-02T05:56:43;5.20;99.90
20035;DHT22;10178;48.034;9.800;2024-03-02T05:59:09;5.30;99.90
20035;DHT22;10178;48.034;9.800;2024-03-02T06:01:47;5.40;99.90
20035;DHT22;10178;48.034;9.800;2024-03-02T06:04:14;5.70;99.90
20035;DHT22;10178;48.034;9.800;2024-03-02T06:06:40;5.80;99.90
20035;DHT22;10178;48.034;9.800;2024-03-02T06:09:06;5.20;99.90
20035;DHT22;10178;48.034;9.800;2024-03-02T06:11:38;5.30;99.90
20035;DHT22;10178;48.034;9.800;2024-03-02T06:14:05;5.60;99.90
20035;DHT22;10178;48.034;9.800;2024-03-02T06:16:32;5.80;99.90
20035;DHT22;10178;48.034;9.800;2024-03-02T06:18:58;6.00;99.90
20035;DHT22;10178;48.034;9.800;2024-03-02T06:21:24;6.10;99.90
20035;DHT22;10178;48.034;9.800;2024-03-02T06:23:50;6.20;99.90
20035;DHT22;10178;48.034;9.800;2024-03-02T06:26:16;6.20;99.90
20035;DHT22;10178;48.034;9.800;2024-03-02T06:28:41;6.30;99.90
20035;DHT22;10178;48.034;9.800;2024-03-02T06:31:07;6.30;99.90
20035;DHT22;10178;48.034;9.800;2024-03-02T06:33:33;6.30;99.90
20035;DHT22;10178;48.034;9.800;2024-03-02T06:35:58;6.30;99.90
20035;DHT22;10178;48.034;9.800;2024-03-02T06:38:24;6.30;99.90
20035;DHT22;10178;48.034;9.800;2024-03-02T06:40:49;6.30;99.90
20035;DHT22;10178;48.034;9.800;2024-03-02T06:43:15;6.40;99.90
20035;DHT22;10178;48.034;9.800;2024-03-02T06:45:41;6.30;99.90
20035;DHT22;10178;48.034;9.800;2024-03-02T06:48:07;6.30;99.90
20035;DHT22;10178;48.034;9.800;2024-03-02T06:50:32;6.40;99.90
20035;DHT22;10178;48.034;9.800;2024-03-02T06:52:58;6.30;99.90
20035;DHT22;10178;48.034;9.800;2024-03-02T06:55:24;6.40;99.90
20035;DHT22;10178;48.034;9.800;2024-03-02T06:57:52;6.40;99.90
20035;DHT22;10178;48.034;9.800;2024-03-02T07:00:18;6.30;99.90
20035;DHT22;10178;48.034;9.800;2024-03-02T07:02:45;6.30;99.90
20035;DHT22;10178;48.034;9.800;2024-03-02T07:05:11;6.30;99.90
20035;DHT22;10178;48.034;9.800;2024-03-02T07:07:37;6.40;99.90
20035;DHT22;10178;48.034;9.800;2024-03-02T07:10:04;6.40;99.90
20035;DHT22;10178;48.034;9.800;2024-03-02T07:12:30;6.40;99.90
20035;DHT22;10178;48.034;9.800;2024-03-02T07:14:56;6.40;99.90
20035;DHT22;10178;48.034;9.800;2024-03-02T07:17:37;6.40;99.90
20035;DHT22;10178;48.034;9.800;2024-03-02T07:20:03;6.40;99.90
20035;DHT22;10178;48.034;9.800;2024-03-02T07:22:29;6.40;99.90
20035;DHT22;10178;48.034;9.800;2024-03-02T07:24:55;6.20;99.90
20035;DHT22;10178;48.034;9.800;2024-03-02T07:27:21;6.10;99.90
20035;DHT22;10178;48.034;9.800;2024-03-02T07:29:46;6.20;99.90
20035;DHT22;10178;48.034;9.800;2024-03-02T07:32:12;6.30;99.90
20035;DHT22;10178;48.034;9.800;2024-03-02T07:34:38;6.30;99.90
20035;DHT22;10178;48.034;9.800;2024-03-02T07:37:04;5.90;99.90
20035;DHT22;10178;48.034;9.800;2024-03-02T07:39:30;5.90;99.90
20035;DHT22;10178;48.034;9.800;2024-03-02T07:41:56;5.80;99.90
20035;DHT22;10178;48.034;9.800;2024-03-02T07:44:21;5.50;99.90
20035;DHT22;10178;48.034;9.800;2024-03-02T07:46:48;5.20;99.90
20035;DHT22;10178;48.034;9.800;2024-03-02T07:49:17;5.10;99.90
20035;DHT22;10178;48.034;9.800;2024-03-02T07:51:43;4.80;99.90
20035;DHT22;10178;48.034;9.800;2024-03-02T07:54:09;5.20;99.90
20035;DHT22;10178;48.034;9.800;2024-03-02T07:56:35;5.50;99.90
20035;DHT22;10178;48.034;9.800;2024-03-02T07:59:02;5.80;99.90
20035;DHT22;10178;48.034;9.800;2024-03-02T08:01:28;6.00;99.90
20035;DHT22;10178;48.034;9.800;2024-03-02T08:03:57;6.10;99.90
20035;DHT22;10178;48.034;9.800;2024-03-02T08:06:24;5.70;99.90
20035;DHT22;10178;48.034;9.800;2024-03-02T08:08:56;5.60;99.90
20035;DHT22;10178;48.034;9.800;2024-03-02T08:11:22;5.60;99.90
20035;DHT22;10178;48.034;9.800;2024-03-02T08:13:48;5.90;99.90
20035;DHT22;10178;48.034;9.800;2024-03-02T08:16:15;6.10;99.90
20035;DHT22;10178;48.034;9.800;2024-03-02T08:18:42;6.30;99.90
20035;DHT22;10178;48.034;9.800;2024-03-02T08:21:08;6.40;99.90
20035;DHT22;10178;48.034;9.800;2024-03-02T08:23:34;6.50;99.90
20035;DHT22;10178;48.034;9.800;2024-03-02T08:26:00;6.60;99.90
20035;DHT22;10178;48.034;9.800;2024-03-02T08:28:26;6.70;99.90
20035;DHT22;10178;48.034;9.800;2024-03-02T08:30:51;6.70;99.90
20035;DHT22;10178;48.034;9.800;2024-03-02T08:33:17;6.80;99.90
20035;DHT22;10178;48.034;9.800;2024-03-02T08:35:43;6.80;99.90
20035;DHT22;10178;48.034;9.800;2024-03-02T08:38:08;6.80;99.90
20035;DHT22;10178;48.034;9.800;2024-03-02T08:40:34;6.90;99.90
20035;DHT22;10178;48.034;9.800;2024-03-02T08:43:00;6.90;99.90
20035;DHT22;10178;48.034;9.800;2024-03-02T08:45:25;6.90;99.90
20035;DHT22;10178;48.034;9.800;2024-03-02T08:47:51;6.90;99.90
20035;DHT22;10178;48.034;9.800;2024-03-02T08:50:17;6.90;99.90
20035;DHT22;10178;48.034;9.800;2024-03-02T08:52:42;7.00;99.90
20035;DHT22;10178;48.034;9.800;2024-03-02T08:55:08;7.00;99.90
20035;DHT22;10178;48.034;9.800;2024-03-02T08:57:35;7.00;99.90
20035;DHT22;10178;48.034;9.800;2024-03-02T09:00:01;6.90;99.90
20035;DHT22;10178;48.034;9.800;2024-03-02T09:02:26;6.90;99.90
20035;DHT22;10178;48.034;9.800;2024-03-02T09:04:52;6.90;99.90
20035;DHT22;10178;48.034;9.800;2024-03-02T09:07:18;6.90;99.90
20035;DHT22;10178;48.034;9.800;2024-03-02T09:09:44;6.90;99.90
20035;DHT22;10178;48.034;9.800;2024-03-02T09:12:10;7.00;99.90
20035;DHT22;10178;48.034;9.800;2024-03-02T09:14:45;7.00;99.90
20035;DHT22;10178;48.034;9.800;2024-03-02T09:17:11;7.00;99.90
20035;DHT22;10178;48.034;9.800;2024-03-02T09:19:37;7.00;99.90
20035;DHT22;10178;48.034;9.800;2024-03-02T09:22:03;7.00;99.90
20035;DHT22;10178;48.034;9.800;2024-03-02T09:24:31;7.10;99.90
20035;DHT22;10178;48.034;9.800;2024-03-02T09:26:57;7.20;99.90
20035;DHT22;10178;48.034;9.800;2024-03-02T09:29:22;7.20;99.90
20035;DHT22;10178;48.034;9.800;2024-03-02T09:31:48;7.30;99.90
20035;DHT22;10178;48.034;9.800;2024-03-02T09:34:15;7.20;99.90
20035;DHT22;10178;48.034;9.800;2024-03-02T09:36:41;7.20;99.90
20035;DHT22;10178;48.034;9.800;2024-03-02T09:39:07;7.30;99.90
20035;DHT22;10178;48.034;9.800;2024-03-02T09:41:38;7.30;99.90
20035;DHT22;10178;48.034;9.800;2024-03-02T09:44:05;7.40;99.90
20035;DHT22;10178;48.034;9.800;2024-03-02T09:46:31;7.30;99.90
20035;DHT22;10178;48.034;9.800;2024-03-02T09:48:57;7.40;99.90
20035;DHT22;10178;48.034;9.800;2024-03-02T09:51:23;7.30;99.90
20035;DHT22;10178;48.034;9.800;2024-03-02T09:53:50;7.30;99.90
20035;DHT22;10178;48.034;9.800;2024-03-02T09:56:16;7.40;99.90
20035;DHT22;10178;48.034;9.800;2024-03-02T09:58:41;7.50;99.90
20035;DHT22;10178;48.034;9.800;2024-03-02T10:01:08;7.60;99.90
20035;DHT22;10178;48.034;9.800;2024-03-02T10:03:36;7.70;99.90
20035;DHT22;10178;48.034;9.800;2024-03-02T10:06:24;8.00;99.90
20035;DHT22;10178;48.034;9.800;2024-03-02T10:08:51;8.30;99.90
20035;DHT22;10178;48.034;9.800;2024-03-02T10:14:04;8.60;99.90
20035;DHT22;10178;48.034;9.800;2024-03-02T10:16:30;8.70;99.90
20035;DHT22;10178;48.034;9.800;2024-03-02T10:18:56;8.90;99.90
20035;DHT22;10178;48.034;9.800;2024-03-02T10:21:21;9.30;99.90
20035;DHT22;10178;48.034;9.800;2024-03-02T10:23:49;9.40;99.90
20035;DHT22;10178;48.034;9.800;2024-03-02T10:26:18;9.50;99.90
20035;DHT22;10178;48.034;9.800;2024-03-02T10:28:47;9.40;99.90
20035;DHT22;10178;48.034;9.800;2024-03-02T10:31:17;9.30;99.90
20035;DHT22;10178;48.034;9.800;2024-03-02T10:33:43;9.20;99.90
20035;DHT22;10178;48.034;9.800;2024-03-02T10:36:09;9.30;99.90
20035;DHT22;10178;48.034;9.800;2024-03-02T10:38:35;9.30;99.90
20035;DHT22;10178;48.034;9.800;2024-03-02T10:41:01;9.20;99.90
20035;DHT22;10178;48.034;9.800;2024-03-02T10:43:29;9.30;99.90
20035;DHT22;10178;48.034;9.800;2024-03-02T10:45:57;9.40;99.90
20035;DHT22;10178;48.034;9.800;2024-03-02T10:48:24;9.20;99.90
20035;DHT22;10178;48.034;9.800;2024-03-02T10:50:51;9.10;99.90
20035;DHT22;10178;48.034;9.800;2024-03-02T10:53:16;8.90;99.90
20035;DHT22;10178;48.034;9.800;2024-03-02T10:55:42;9.00;99.90
20035;DHT22;10178;48.034;9.800;2024-03-02T10:58:11;9.20;99.90
20035;DHT22;10178;48.034;9.800;2024-03-02T11:00:38;9.40;99.90
20035;DHT22;10178;48.034;9.800;2024-03-02T11:03:07;9.70;99.90
20035;DHT22;10178;48.034;9.800;2024-03-02T11:05:38;9.60;99.90
20035;DHT22;10178;48.034;9.800;2024-03-02T11:08:08;9.50;99.90
20035;DHT22;10178;48.034;9.800;2024-03-02T11:10:41;10.30;99.90
20035;DHT22;10178;48.034;9.800;2024-03-02T11:13:12;11.00;99.90
20035;DHT22;10178;48.034;9.800;2024-03-02T11:15:40;11.50;99.90
20035;DHT22;10178;48.034;9.800;2024-03-02T11:18:09;11.70;99.90
20035;DHT22;10178;48.034;9.800;2024-03-02T11:20:39;11.70;99.90
20035;DHT22;10178;48.034;9.800;2024-03-02T11:23:07;11.10;99.90
20035;DHT22;10178;48.034;9.800;2024-03-02T11:25:34;11.20;99.90
20035;DHT22;10178;48.034;9.800;2024-03-02T11:28:04;10.80;99.90
20035;DHT22;10178;48.034;9.800;2024-03-02T11:33:02;10.20;99.90
20035;DHT22;10178;48.034;9.800;2024-03-02T11:35:38;10.00;99.90
20035;DHT22;10178;48.034;9.800;2024-03-02T11:38:07;10.10;99.90
20035;DHT22;10178;48.034;9.800;2024-03-02T11:40:32;9.90;99.90
20035;DHT22;10178;48.034;9.800;2024-03-02T11:43:01;9.70;99.90
20035;DHT22;10178;48.034;9.800;2024-03-02T11:45:27;9.50;99.90
20035;DHT22;10178;48.034;9.800;2024-03-02T11:47:57;9.50;99.90
20035;DHT22;10178;48.034;9.800;2024-03-02T11:52:55;9.40;99.90
20035;DHT22;10178;48.034;9.800;2024-03-02T11:55:21;9.30;99.90
20035;DHT22;10178;48.034;9.800;2024-03-02T11:57:49;9.10;99.90
20035;DHT22;10178;48.034;9.800;2024-03-02T12:00:19;9.20;99.90
20035;DHT22;10178;48.034;9.800;2024-03-02T12:03:07;9.20;99.90
20035;DHT22;10178;48.034;9.800;2024-03-02T12:05:40;9.20;99.90
20035;DHT22;10178;48.034;9.800;2024-03-02T12:08:07;9.20;99.90
20035;DHT22;10178;48.034;9.800;2024-03-02T12:10:33;9.30;99.90
20035;DHT22;10178;48.034;9.800;2024-03-02T12:13:04;9.30;99.90
20035;DHT22;10178;48.034;9.800;2024-03-02T12:15:31;9.40;99.90
20035;DHT22;10178;48.034;9.800;2024-03-02T12:17:58;9.50;99.90
20035;DHT22;10178;48.034;9.800;2024-03-02T12:20:26;10.40;99.90
20035;DHT22;10178;48.034;9.800;2024-03-02T12:22:53;10.40;99.90
20035;DHT22;10178;48.034;9.800;2024-03-02T12:25:23;10.10;99.90
20035;DHT22;10178;48.034;9.800;2024-03-02T12:27:50;10.20;99.90
20035;DHT22;10178;48.034;9.800;2024-03-02T12:30:17;10.10;99.90
20035;DHT22;10178;48.034;9.800;2024-03-02T12:32:43;10.00;99.90
20035;DHT22;10178;48.034;9.800;2024-03-02T12:35:10;10.10;99.90
20035;DHT22;10178;48.034;9.800;2024-03-02T12:37:47;10.30;99.90
20035;DHT22;10178;48.034;9.800;2024-03-02T12:40:14;10.70;99.90
20035;DHT22;10178;48.034;9.800;2024-03-02T12:42:40;10.50;99.90
20035;DHT22;10178;48.034;9.800;2024-03-02T12:45:07;10.80;99.90
20035;DHT22;10178;48.034;9.800;2024-03-02T12:47:37;10.60;99.90
20035;DHT22;10178;48.034;9.800;2024-03-02T12:50:03;10.50;99.90
20035;DHT22;10178;48.034;9.800;2024-03-02T12:52:30;10.60;99.90
20035;DHT22;10178;48.034;9.800;2024-03-02T12:54:58;10.50;99.90
20035;DHT22;10178;48.034;9.800;2024-03-02T12:57:28;10.20;99.90
20035;DHT22;10178;48.034;9.800;2024-03-02T13:00:02;10.70;99.90
20035;DHT22;10178;48.034;9.800;2024-03-02T13:02:35;11.00;99.90
20035;DHT22;10178;48.034;9.800;2024-03-02T13:05:00;11.20;99.90
20035;DHT22;10178;48.034;9.800;2024-03-02T13:07:27;10.90;99.90
20035;DHT22;10178;48.034;9.800;2024-03-02T13:09:56;10.40;99.90
20035;DHT22;10178;48.034;9.800;2024-03-02T13:12:24;10.30;99.90
20035;DHT22;10178;48.034;9.800;2024-03-02T13:14:51;10.20;99.90
20035;DHT22;10178;48.034;9.800;2024-03-02T13:17:18;10.20;99.90
20035;DHT22;10178;48.034;9.800;2024-03-02T13:19:53;10.80;99.90
20035;DHT22;10178;48.034;9.800;2024-03-02T13:22:19;11.00;99.90
20035;DHT22;10178;48.034;9.800;2024-03-02T13:24:45;10.80;99.90
20035;DHT22;10178;48.034;9.800;2024-03-02T13:27:11;10.60;99.90
20035;DHT22;10178;48.034;9.800;2024-03-02T13:29:37;10.60;99.90
20035;DHT22;10178;48.034;9.800;2024-03-02T13:32:03;10.80;99.90
20035;DHT22;10178;48.034;9.800;2024-03-02T13:34:29;10.60;99.90
20035;DHT22;10178;48.034;9.800;2024-03-02T13:36:54;10.50;99.90
20035;DHT22;10178;48.034;9.800;2024-03-02T13:39:20;10.60;99.90
20035;DHT22;10178;48.034;9.800;2024-03-02T13:41:46;10.40;99.90
20035;DHT22;10178;48.034;9.800;2024-03-02T13:44:21;10.40;99.90
20035;DHT22;10178;48.034;9.800;2024-03-02T13:46:47;10.50;99.90
20035;DHT22;10178;48.034;9.800;2024-03-02T13:49:14;10.80;99.90
20035;DHT22;10178;48.034;9.800;2024-03-02T13:51:40;11.00;99.90
20035;DHT22;10178;48.034;9.800;2024-03-02T13:54:05;10.90;99.90
20035;DHT22;10178;48.034;9.800;2024-03-02T13:56:31;10.70;99.90
20035;DHT22;10178;48.034;9.800;2024-03-02T13:58:58;10.70;99.90
20035;DHT22;10178;48.034;9.800;2024-03-02T14:01:24;10.60;99.90
20035;DHT22;10178;48.034;9.800;2024-03-02T14:03:50;10.60;99.90
20035;DHT22;10178;48.034;9.800;2024-03-02T14:06:16;10.40;99.90
20035;DHT22;10178;48.034;9.800;2024-03-02T14:08:42;10.10;99.90
20035;DHT22;10178;48.034;9.800;2024-03-02T14:11:10;10.20;99.90
20035;DHT22;10178;48.034;9.800;2024-03-02T14:13:41;10.40;99.90
20035;DHT22;10178;48.034;9.800;2024-03-02T14:16:06;10.20;99.90
20035;DHT22;10178;48.034;9.800;2024-03-02T14:18:32;10.00;99.90
20035;DHT22;10178;48.034;9.800;2024-03-02T14:20:58;9.90;99.90
20035;DHT22;10178;48.034;9.800;2024-03-02T14:23:23;9.80;99.90
20035;DHT22;10178;48.034;9.800;2024-03-02T14:25:51;9.80;99.90
20035;DHT22;10178;48.034;9.800;2024-03-02T14:28:16;10.00;99.90
20035;DHT22;10178;48.034;9.800;2024-03-02T14:30:42;10.00;99.90
20035;DHT22;10178;48.034;9.800;2024-03-02T14:33:08;10.20;99.90
20035;DHT22;10178;48.034;9.800;2024-03-02T14:35:33;10.50;99.90
20035;DHT22;10178;48.034;9.800;2024-03-02T14:37:59;10.90;99.90
20035;DHT22;10178;48.034;9.800;2024-03-02T14:40:25;11.50;99.90
20035;DHT22;10178;48.034;9.800;2024-03-02T14:42:53;11.50;99.90
20035;DHT22;10178;48.034;9.800;2024-03-02T14:45:18;11.50;99.90
20035;DHT22;10178;48.034;9.800;2024-03-02T14:47:44;11.90;99.90
20035;DHT22;10178;48.034;9.800;2024-03-02T14:50:10;12.00;99.90
20035;DHT22;10178;48.034;9.800;2024-03-02T14:52:36;11.90;99.90
20035;DHT22;10178;48.034;9.800;2024-03-02T14:55:02;11.90;99.90
20035;DHT22;10178;48.034;9.800;2024-03-02T14:57:32;11.80;99.90
20035;DHT22;10178;48.034;9.800;2024-03-02T14:59:58;11.80;99.90
20035;DHT22;10178;48.034;9.800;2024-03-02T15:02:24;11.70;99.90
20035;DHT22;10178;48.034;9.800;2024-03-02T15:04:49;11.50;99.90
20035;DHT22;10178;48.034;9.800;2024-03-02T15:07:15;11.30;99.90
20035;DHT22;10178;48.034;9.800;2024-03-02T15:09:41;11.20;99.90
20035;DHT22;10178;48.034;9.800;2024-03-02T15:12:07;11.30;99.90
20035;DHT22;10178;48.034;9.800;2024-03-02T15:14:36;11.30;99.90
20035;DHT22;10178;48.034;9.800;2024-03-02T15:17:04;11.50;99.90
20035;DHT22;10178;48.034;9.800;2024-03-02T15:19:29;11.60;99.90
20035;DHT22;10178;48.034;9.800;2024-03-02T15:21:55;11.60;99.90
20035;DHT22;10178;48.034;9.800;2024-03-02T15:24:20;11.70;99.90
20035;DHT22;10178;48.034;9.800;2024-03-02T15:26:46;11.70;99.90
20035;DHT22;10178;48.034;9.800;2024-03-02T15:29:12;11.70;99.90
20035;DHT22;10178;48.034;9.800;2024-03-02T15:31:37;11.70;99.90
20035;DHT22;10178;48.034;9.800;2024-03-02T15:34:03;11.70;99.90
20035;DHT22;10178;48.034;9.800;2024-03-02T15:36:29;11.80;99.90
20035;DHT22;10178;48.034;9.800;2024-03-02T15:38:54;11.70;99.90
20035;DHT22;10178;48.034;9.800;2024-03-02T15:41:20;11.70;99.90
20035;DHT22;10178;48.034;9.800;2024-03-02T15:43:46;11.70;99.90
20035;DHT22;10178;48.034;9.800;2024-03-02T15:46:12;11.70;99.90
20035;DHT22;10178;48.034;9.800;2024-03-02T15:48:38;11.70;99.90